createdAt,value
2023-02-11T00:00:00.742Z,8.25
2023-02-11T00:05:02.769Z,8.15
2023-02-11T00:10:07.978Z,7.88
2023-02-11T00:15:10.544Z,8.18
2023-02-11T00:20:12.390Z,7.68
2023-02-11T00:25:13.992Z,7.50
2023-02-11T00:30:16.638Z,7.63
2023-02-11T00:35:18.354Z,7.78
2023-02-11T00:40:20.184Z,8.35
2023-02-11T00:45:21.885Z,8.23
2023-02-11T00:50:24.019Z,7.53
2023-02-11T00:55:25.810Z,8.18
2023-02-11T01:00:28.025Z,7.30
2023-02-11T01:05:29.854Z,8.88
2023-02-11T01:10:31.816Z,9.15
2023-02-11T01:15:33.998Z,8.18
2023-02-11T01:20:35.755Z,7.90
2023-02-11T01:25:37.411Z,8.45
2023-02-11T01:30:39.454Z,8.15
2023-02-11T01:35:41.457Z,7.85
2023-02-11T01:41:04.115Z,7.70
2023-02-11T01:46:23.774Z,7.82
2023-02-11T01:51:31.285Z,7.30
2023-02-11T01:56:53.505Z,7.90
2023-02-11T02:02:02.077Z,8.45
2023-02-11T02:07:10.357Z,7.53
2023-02-11T02:12:12.127Z,8.20
2023-02-11T02:17:29.528Z,7.35
2023-02-11T02:23:03.955Z,8.13
2023-02-11T02:28:32.770Z,8.30
2023-02-11T02:33:42.473Z,9.23
2023-02-11T02:38:51.043Z,8.30
2023-02-11T02:43:53.547Z,8.07
2023-02-11T02:48:56.368Z,8.85
2023-02-11T02:53:57.945Z,8.38
2023-02-11T02:59:15.778Z,7.57
2023-02-11T03:04:21.030Z,9.48
2023-02-11T03:09:32.536Z,8.32
2023-02-11T03:14:36.501Z,8.30
2023-02-11T03:19:44.550Z,8.70
2023-02-11T03:24:46.967Z,8.23
2023-02-11T03:30:14.879Z,7.85
2023-02-11T03:35:38.307Z,7.65
2023-02-11T03:40:43.724Z,7.85
2023-02-11T03:45:48.507Z,7.70
2023-02-11T03:50:52.864Z,7.25
2023-02-11T03:55:57.394Z,8.43
2023-02-11T04:00:59.182Z,7.53
2023-02-11T04:06:00.921Z,7.28
2023-02-11T04:11:02.613Z,7.05
2023-02-11T04:16:04.433Z,7.88
2023-02-11T04:21:06.202Z,6.75
2023-02-11T04:26:07.853Z,6.75
2023-02-11T04:31:10.876Z,7.60
2023-02-11T04:36:12.991Z,7.03
2023-02-11T04:41:14.648Z,5.43
2023-02-11T04:46:16.376Z,6.60
2023-02-11T04:51:18.071Z,7.38
2023-02-11T04:56:19.836Z,6.85
2023-02-11T05:01:21.754Z,7.60
2023-02-11T05:06:23.425Z,7.03
2023-02-11T05:11:26.081Z,8.00
2023-02-11T05:16:28.207Z,7.70
2023-02-11T05:21:29.863Z,7.00
2023-02-11T05:26:32.498Z,7.28
2023-02-11T05:31:34.209Z,7.70
2023-02-11T05:36:36.021Z,7.75
2023-02-11T05:41:38.364Z,7.68
2023-02-11T05:46:40.095Z,7.95
2023-02-11T05:51:41.899Z,7.60
2023-02-11T05:56:44.963Z,8.18
2023-02-11T06:01:46.750Z,7.13
2023-02-11T06:06:48.386Z,7.00
2023-02-11T06:11:50.126Z,6.88
2023-02-11T06:16:51.878Z,7.57
2023-02-11T06:21:53.568Z,7.75
2023-02-11T06:26:55.353Z,8.10
2023-02-11T06:31:57.140Z,8.30
2023-02-11T06:36:58.996Z,7.05
2023-02-11T06:42:00.665Z,7.45
2023-02-11T06:47:02.432Z,7.55
2023-02-11T06:52:04.334Z,9.65
2023-02-11T06:57:06.052Z,9.90
2023-02-11T07:02:10.391Z,9.88
2023-02-11T07:07:12.116Z,7.15
2023-02-11T07:12:14.016Z,7.80
2023-02-11T07:17:16.047Z,7.38
2023-02-11T07:22:17.729Z,10.40
2023-02-11T07:27:19.402Z,11.20
2023-02-11T07:32:21.905Z,8.77
2023-02-11T07:37:23.615Z,9.88
2023-02-11T07:42:25.333Z,9.35
2023-02-11T07:47:27.180Z,9.18
2023-02-11T07:52:31.725Z,10.43
2023-02-11T07:57:33.463Z,9.75
2023-02-11T08:02:36.118Z,8.65
2023-02-11T08:07:37.935Z,9.80
2023-02-11T08:12:39.631Z,9.05
2023-02-11T08:17:41.343Z,9.02
2023-02-11T08:22:43.054Z,8.40
2023-02-11T08:27:44.825Z,8.75
2023-02-11T08:32:46.634Z,8.77
2023-02-11T08:37:48.325Z,9.13
2023-02-11T08:42:50.037Z,9.93
2023-02-11T08:47:52.858Z,9.32
2023-02-11T08:52:54.512Z,9.38
2023-02-11T08:57:56.910Z,9.10
2023-02-11T09:02:58.646Z,9.43
2023-02-11T09:08:00.373Z,9.65
2023-02-11T09:13:02.445Z,9.52
2023-02-11T09:18:05.431Z,8.55
2023-02-11T09:23:07.327Z,8.07
2023-02-11T09:28:09.773Z,7.82
2023-02-11T09:33:11.491Z,8.18
2023-02-11T09:38:13.219Z,8.07
2023-02-11T09:43:17.909Z,8.20
2023-02-11T09:48:22.546Z,9.18
2023-02-11T09:53:30.108Z,8.98
2023-02-11T09:58:35.666Z,8.75
2023-02-11T10:04:19.572Z,9.02
2023-02-11T10:09:24.034Z,9.07
2023-02-11T10:14:34.089Z,8.80
2023-02-11T10:20:04.698Z,9.00
2023-02-11T10:25:24.508Z,9.15
2023-02-11T10:30:32.990Z,9.02
2023-02-11T10:35:34.757Z,9.32
2023-02-11T10:40:36.432Z,9.63
2023-02-11T10:45:43.083Z,8.68
2023-02-11T10:50:45.009Z,8.38
2023-02-11T10:56:07.542Z,7.80
2023-02-11T11:01:23.527Z,8.30
2023-02-11T11:06:32.774Z,7.32
2023-02-11T11:11:51.406Z,6.82
2023-02-11T11:16:54.629Z,6.78
2023-02-11T11:21:56.796Z,5.65
2023-02-11T11:27:01.856Z,7.70
2023-02-11T11:32:11.678Z,8.02
2023-02-11T11:37:20.508Z,7.68
2023-02-11T11:42:26.680Z,8.05
2023-02-11T11:47:41.217Z,8.05
2023-02-11T11:53:00.286Z,8.60
2023-02-11T11:58:02.209Z,7.47
2023-02-11T12:03:33.182Z,7.43
2023-02-11T12:09:01.790Z,6.88
2023-02-11T12:14:36.988Z,6.90
2023-02-11T12:20:20.041Z,6.75
2023-02-11T12:25:37.201Z,7.20
2023-02-11T12:30:38.927Z,7.45
2023-02-11T12:36:08.603Z,6.78
2023-02-11T12:41:47.732Z,6.93
2023-02-11T12:47:14.321Z,6.68
2023-02-11T12:52:47.722Z,6.30
2023-02-11T12:57:52.552Z,6.68
2023-02-11T13:02:57.797Z,6.40
2023-02-11T13:08:33.026Z,6.05
2023-02-11T13:13:47.558Z,6.20
2023-02-11T13:18:57.646Z,6.38
2023-02-11T13:24:12.591Z,6.60
2023-02-11T13:29:34.754Z,6.05
2023-02-11T13:34:42.271Z,6.45
2023-02-11T13:39:58.675Z,6.32
2023-02-11T13:45:02.438Z,6.60
2023-02-11T13:50:07.858Z,6.28
2023-02-11T13:55:23.463Z,6.68
2023-02-11T14:00:37.430Z,6.57
2023-02-11T14:06:26.723Z,7.43
2023-02-11T14:11:35.857Z,6.88
2023-02-11T14:17:04.361Z,6.43
2023-02-11T14:22:13.593Z,7.43
2023-02-11T14:27:29.754Z,7.30
2023-02-11T14:32:47.883Z,7.10
2023-02-11T14:37:58.777Z,7.70
2023-02-11T14:43:16.775Z,7.13
2023-02-11T14:48:22.826Z,7.65
2023-02-11T14:53:26.731Z,8.07
2023-02-11T14:58:33.258Z,7.32
2023-02-11T15:03:40.394Z,7.57
2023-02-11T15:08:55.284Z,7.82
2023-02-11T15:14:01.156Z,8.95
2023-02-11T15:19:08.044Z,8.40
2023-02-11T15:24:31.454Z,8.80
2023-02-11T15:29:45.175Z,7.25
2023-02-11T15:34:51.183Z,8.60
2023-02-11T15:39:56.296Z,9.00
2023-02-11T15:45:17.183Z,8.90
2023-02-11T15:50:22.961Z,7.68
2023-02-11T15:55:27.637Z,8.37
2023-02-11T16:00:37.623Z,8.38
2023-02-11T16:05:41.757Z,7.47
2023-02-11T16:10:58.880Z,8.45
2023-02-11T16:16:19.044Z,8.60
2023-02-11T16:21:22.718Z,8.70
2023-02-11T16:26:33.812Z,8.88
2023-02-11T16:31:42.097Z,8.40
2023-02-11T16:36:45.412Z,7.80
2023-02-11T16:41:48.327Z,7.53
2023-02-11T16:46:51.515Z,7.80
2023-02-11T16:52:01.527Z,8.30
2023-02-11T16:57:20.878Z,8.57
2023-02-11T17:02:29.121Z,7.70
2023-02-11T17:07:31.604Z,8.68
2023-02-11T17:12:35.983Z,8.98
2023-02-11T17:17:40.059Z,9.57
2023-02-11T17:22:42.384Z,8.90
2023-02-11T17:27:45.723Z,9.85
2023-02-11T17:32:53.264Z,9.25
2023-02-11T17:37:55.871Z,9.18
2023-02-11T17:42:58.030Z,8.98
2023-02-11T17:48:02.279Z,8.20
2023-02-11T17:53:07.822Z,8.18
2023-02-11T17:58:11.720Z,9.85
2023-02-11T18:03:15.619Z,9.38
2023-02-11T18:08:18.346Z,9.13
2023-02-11T18:13:21.244Z,9.18
2023-02-11T18:18:24.092Z,10.75
2023-02-11T18:23:27.026Z,10.27
2023-02-11T18:28:29.854Z,10.68
2023-02-11T18:33:32.648Z,10.48
2023-02-11T18:38:38.754Z,9.25
2023-02-11T18:43:43.814Z,10.15
2023-02-11T18:48:46.819Z,8.77
2023-02-11T18:53:51.464Z,8.63
2023-02-11T18:58:58.957Z,9.13
2023-02-11T19:04:04.864Z,9.10
2023-02-11T19:09:11.870Z,10.32
2023-02-11T19:14:18.094Z,9.90
2023-02-11T19:19:24.516Z,8.02
2023-02-11T19:24:28.777Z,8.93
2023-02-11T19:29:35.936Z,8.23
2023-02-11T19:34:42.032Z,8.70
2023-02-11T19:39:45.006Z,9.85
2023-02-11T19:44:47.844Z,8.73
2023-02-11T19:49:50.900Z,8.57
2023-02-11T19:54:55.903Z,8.63
2023-02-11T19:59:59.557Z,9.40
2023-02-11T20:05:02.474Z,7.93
2023-02-11T20:10:07.460Z,7.60
2023-02-11T20:15:11.026Z,7.78
2023-02-11T20:20:13.799Z,7.05
2023-02-11T20:25:17.169Z,9.68
2023-02-11T20:30:20.042Z,9.88
2023-02-11T20:35:22.529Z,9.18
2023-02-11T20:40:25.538Z,9.93
2023-02-11T20:45:28.311Z,8.82
2023-02-11T20:50:32.059Z,9.57
2023-02-11T20:55:39.835Z,9.43
2023-02-11T21:00:42.603Z,9.25
2023-02-11T21:05:45.391Z,9.68
2023-02-11T21:10:50.320Z,8.65
2023-02-11T21:15:58.495Z,8.52
2023-02-11T21:21:02.182Z,8.48
2023-02-11T21:26:04.538Z,7.95
2023-02-11T21:31:07.131Z,9.18
2023-02-11T21:36:11.052Z,7.88
2023-02-11T21:41:13.796Z,7.32
2023-02-11T21:46:19.463Z,8.60
2023-02-11T21:51:26.596Z,7.87
2023-02-11T21:56:31.133Z,7.43
2023-02-11T22:01:35.724Z,9.50
2023-02-11T22:06:41.519Z,8.45
2023-02-11T22:11:43.684Z,7.57
2023-02-11T22:16:46.588Z,8.63
2023-02-11T22:21:48.358Z,6.90
2023-02-11T22:26:51.349Z,7.57
2023-02-11T22:31:53.178Z,7.72
2023-02-11T22:36:55.148Z,8.07
2023-02-11T22:41:57.580Z,8.38
2023-02-11T22:46:59.218Z,8.50
2023-02-11T22:52:00.947Z,8.15
2023-02-11T22:57:02.690Z,7.78
2023-02-11T23:02:04.493Z,7.50
2023-02-11T23:07:06.226Z,6.88
2023-02-11T23:12:07.927Z,7.68
2023-02-11T23:17:09.621Z,7.20
2023-02-11T23:22:11.333Z,7.13
2023-02-11T23:27:13.709Z,8.07
2023-02-11T23:32:15.518Z,8.48
2023-02-11T23:37:17.232Z,7.28
2023-02-11T23:42:18.895Z,8.35
2023-02-11T23:47:20.514Z,8.40
2023-02-11T23:52:22.223Z,7.55
2023-02-11T23:57:23.895Z,7.65
